Thursday, September 20, 2018, 10:11 PM EDT
Back to Local

KMTP, Montauk Airport

Location: Montauk, NY, United States Lat: 41.067
Local Time: 10:11 PM EDT ( 2:11 GMT) Lon: -71.917
Time Zone: US/Eastern Elev: 6 ft

Show me the last for .
Show Decoded

2018-09-20 21:54 METAR KMTP 210154Z AUTO 00000KT 18/16 A3030 RMK AO1 SLP261 T01830156 =
2018-09-20 20:54 METAR KMTP 210054Z AUTO 10004KT 18/16 A3028 RMK AO1 SLP252 T01830156 =
2018-09-20 19:54 METAR KMTP 202354Z AUTO 10004KT 18/16 A3027 RMK AO1 SLP251 T01830161 10222 20183
                 51011 =
2018-09-20 18:54 METAR KMTP 202254Z AUTO 18/16 A3027 RMK AO1 SLP249 T01830156 =
2018-09-20 17:54 METAR KMTP 202154Z AUTO VRB04KT 19/16 A3026 RMK AO1 SLP245 T01940156 =
2018-09-20 16:54 METAR KMTP 202054Z AUTO VRB05KT 20/16 A3024 RMK AO1 SLP240 T02000156 53001 =
2018-09-20 15:54 METAR KMTP 201954Z AUTO 09006KT 21/15 A3024 RMK AO1 SLP240 T02110150 =
2018-09-20 14:54 METAR KMTP 201854Z AUTO VRB05KT 21/15 A3023 RMK AO1 SLP236 T02110150 =
2018-09-20 13:54 METAR KMTP 201754Z AUTO 04007KT 22/15 A3024 RMK AO1 SLP240 T02170150 10222 20172
                 58003 =
2018-09-20 12:54 METAR KMTP 201654Z AUTO 04008KT 22/15 A3025 RMK AO1 SLP241 T02170150 =
2018-09-20 11:54 METAR KMTP 201554Z AUTO 04006KT 21/15 A3025 RMK AO1 SLP242 T02110150 =
2018-09-20 10:54 METAR KMTP 201454Z AUTO 04007KT 020V080 20/15 A3025 RMK AO1 SLP243 T02000150
                 53023 =
2018-09-20 09:54 METAR KMTP 201354Z AUTO 04006G14KT 18/15 A3022 RMK AO1 SLP233 T01830150 =
2018-09-20 08:54 METAR KMTP 201254Z AUTO 03009G15KT 18/15 A3020 RMK AO1 SLP226 T01780150 =
2018-09-20 07:54 METAR KMTP 201154Z AUTO 03009KT 17/14 A3018 RMK AO1 SLP220 T01720144 10178 20167
                 53022 =
2018-09-20 06:54 METAR KMTP 201054Z AUTO 04008G16KT 17/14 A3015 RMK AO1 SLP211 T01670144 =
2018-09-20 05:54 METAR KMTP 200954Z AUTO 05008KT 17/14 A3013 RMK AO1 SLP202 T01720144 =
2018-09-20 04:54 METAR KMTP 200854Z AUTO 04009G17KT 17/14 A3012 RMK AO1 SLP198 T01670144 51007 =
2018-09-20 03:54 METAR KMTP 200754Z AUTO 03010G17KT 17/14 A3011 RMK AO1 SLP196 T01670144 =
2018-09-20 02:54 METAR KMTP 200654Z AUTO 02008KT 18/15 A3011 RMK AO1 SLP194 T01780150 =
2018-09-20 01:54 METAR KMTP 200554Z AUTO 05009G15KT 17/14 A3010 RMK AO1 SLP191 T01720139 10183
                 20167 50007 =
2018-09-20 00:54 METAR KMTP 200454Z AUTO 03010KT 17/14 A3010 RMK AO1 SLP194 T01720139 402220172 =
2018-09-19 23:54 METAR KMTP 200354Z AUTO 03007KT 17/14 A3009 RMK AO1 SLP188 T01720139 =
2018-09-19 22:54 METAR KMTP 200254Z AUTO 05008G15KT 17/14 A3008 RMK AO1 SLP184 T01720139 51018 =

Support USWX by starting your Amazon purchase here.